Painesville, Ohio
Current Conditions -  °F | °C
As of 9:45 PM on Wednesday 26 Nov 2014 (Local Time) from KCGF Reporting Station
Broken Clouds Broken Clouds  
Wind Chill: 31°   Ceiling: 5000
Heat Index: 36°   Visibility: 10mi
Dew Point: 30°   Wind: 6mph
Humidity: 81%   Direction: 240°WSW
Pressure: 30.02"   Gusts: NA
Location:  41.72°N, 81.24°W
Report Text: KCGF 270245Z 24005KT 10SM SCT035 BKN050 02/M01 A3002
Loading
Personal Weather Stations






























Interactive Weather Map New forecast layout! Learn more

10-Day Weather Forecast

Advertisements
Track Severe Weather on mobile